BJK9260 KSTL-KTUL
Flight info
| Callsign | BJK9260 |
|---|---|
| Flight time | 1h 2m |
| Altitude | 30000 |
| Route | BGOOD5 VIH SGF VINTA3 |
| Aircraft | RJ1H/M-VGDW/C |
Departure
| Time | 2026-05-07 18:54 |
|---|---|
| Airport | St. Louis Lambert International Airport (KSTL) |
Arrival
| Time | 2026-05-07 19:57 |
|---|---|
| Airport | Tulsa International Airport (KTUL) |
| Time | Latitude | Longitude | Altitude | Speed | Heading |
|---|---|---|---|---|---|
| 2026-05-07 18:37 | 38.74540 | -90.34702 | 617 ft | 0 kts | 237° |
| 2026-05-07 18:51 | 38.74538 | -90.34708 | 617 ft | 3 kts | 250° |
| 2026-05-07 18:51 | 38.74543 | -90.34765 | 627 ft | 10 kts | 279° |
| 2026-05-07 18:52 | 38.74500 | -90.34855 | 618 ft | 15 kts | 201° |
| 2026-05-07 18:52 | 38.74429 | -90.34769 | 616 ft | 15 kts | 124° |
| 2026-05-07 18:52 | 38.74374 | -90.34661 | 630 ft | 14 kts | 127° |
| 2026-05-07 18:52 | 38.74296 | -90.34664 | 621 ft | 12 kts | 209° |
| 2026-05-07 18:53 | 38.74247 | -90.34737 | 619 ft | 16 kts | 296° |
| 2026-05-07 18:53 | 38.74326 | -90.34900 | 620 ft | 48 kts | 301° |
| 2026-05-07 18:53 | 38.74592 | -90.35440 | 621 ft | 93 kts | 302° |
| 2026-05-07 18:53 | 38.74997 | -90.36268 | 616 ft | 128 kts | 303° |
| 2026-05-07 18:54 | 38.75528 | -90.37234 | 822 ft | 133 kts | 305° |
| 2026-05-07 18:54 | 38.76110 | -90.38176 | 988 ft | 142 kts | 303° |
| 2026-05-07 18:54 | 38.76514 | -90.39341 | 1166 ft | 144 kts | 292° |
| 2026-05-07 18:54 | 38.76962 | -90.40466 | 1636 ft | 140 kts | 291° |
| 2026-05-07 18:55 | 38.77395 | -90.41549 | 1861 ft | 142 kts | 292° |
| 2026-05-07 18:55 | 38.77889 | -90.42804 | 2054 ft | 173 kts | 294° |
| 2026-05-07 18:55 | 38.78434 | -90.44252 | 2572 ft | 185 kts | 279° |
| 2026-05-07 18:55 | 38.78200 | -90.45845 | 3167 ft | 191 kts | 240° |
| 2026-05-07 18:56 | 38.77497 | -90.47362 | 3750 ft | 204 kts | 240° |
| 2026-05-07 18:56 | 38.76733 | -90.48968 | 4311 ft | 218 kts | 238° |
| 2026-05-07 18:56 | 38.75866 | -90.50634 | 4891 ft | 232 kts | 237° |
| 2026-05-07 18:56 | 38.74819 | -90.52284 | 5479 ft | 246 kts | 225° |
| 2026-05-07 18:57 | 38.73480 | -90.53727 | 6014 ft | 256 kts | 222° |
| 2026-05-07 18:57 | 38.72071 | -90.55161 | 6444 ft | 259 kts | 221° |
| 2026-05-07 18:57 | 38.70646 | -90.56587 | 6945 ft | 261 kts | 221° |
| 2026-05-07 18:57 | 38.69211 | -90.58019 | 7441 ft | 263 kts | 221° |
| 2026-05-07 18:58 | 38.67757 | -90.59464 | 7953 ft | 266 kts | 221° |
| 2026-05-07 18:58 | 38.66294 | -90.60922 | 8514 ft | 267 kts | 221° |
| 2026-05-07 18:58 | 38.64830 | -90.62402 | 9083 ft | 270 kts | 221° |
| 2026-05-07 18:58 | 38.63410 | -90.63995 | 9660 ft | 271 kts | 233° |
| 2026-05-07 18:59 | 38.62428 | -90.66039 | 10299 ft | 271 kts | 243° |
| 2026-05-07 18:59 | 38.61543 | -90.68129 | 10942 ft | 271 kts | 244° |
| 2026-05-07 18:59 | 38.60656 | -90.70288 | 11578 ft | 270 kts | 246° |
| 2026-05-07 18:59 | 38.59814 | -90.72414 | 12352 ft | 270 kts | 248° |
| 2026-05-07 19:00 | 38.58981 | -90.74542 | 13148 ft | 269 kts | 249° |
| 2026-05-07 19:00 | 38.58156 | -90.76660 | 13863 ft | 270 kts | 249° |
| 2026-05-07 19:00 | 38.57310 | -90.78827 | 14433 ft | 273 kts | 250° |
| 2026-05-07 19:00 | 38.56457 | -90.81012 | 14998 ft | 276 kts | 250° |
| 2026-05-07 19:01 | 38.55595 | -90.83200 | 15567 ft | 277 kts | 249° |
| 2026-05-07 19:01 | 38.54723 | -90.85404 | 16105 ft | 279 kts | 250° |
| 2026-05-07 19:01 | 38.53843 | -90.87619 | 16606 ft | 280 kts | 250° |
| 2026-05-07 19:01 | 38.52957 | -90.89847 | 17083 ft | 283 kts | 250° |
| 2026-05-07 19:02 | 38.52062 | -90.92090 | 17567 ft | 284 kts | 250° |
| 2026-05-07 19:02 | 38.51155 | -90.94343 | 18042 ft | 286 kts | 249° |
| 2026-05-07 19:02 | 38.50242 | -90.96568 | 18463 ft | 287 kts | 249° |
| 2026-05-07 19:02 | 38.49324 | -90.98837 | 18855 ft | 288 kts | 249° |
| 2026-05-07 19:03 | 38.48407 | -91.01107 | 19238 ft | 288 kts | 249° |
| 2026-05-07 19:03 | 38.47485 | -91.03384 | 19597 ft | 289 kts | 250° |
| 2026-05-07 19:03 | 38.46562 | -91.05672 | 19943 ft | 290 kts | 250° |
| 2026-05-07 19:03 | 38.45632 | -91.07959 | 20286 ft | 291 kts | 249° |
| 2026-05-07 19:04 | 38.44693 | -91.10245 | 20621 ft | 292 kts | 249° |
| 2026-05-07 19:04 | 38.43746 | -91.12540 | 20956 ft | 293 kts | 248° |
| 2026-05-07 19:04 | 38.42707 | -91.14795 | 21298 ft | 296 kts | 246° |
| 2026-05-07 19:04 | 38.41610 | -91.17034 | 21593 ft | 299 kts | 245° |
| 2026-05-07 19:05 | 38.40505 | -91.19282 | 21903 ft | 300 kts | 245° |
| 2026-05-07 19:05 | 38.39400 | -91.21538 | 22243 ft | 300 kts | 245° |
| 2026-05-07 19:05 | 38.38296 | -91.23795 | 22545 ft | 301 kts | 245° |
| 2026-05-07 19:05 | 38.37185 | -91.26067 | 22875 ft | 302 kts | 246° |
| 2026-05-07 19:06 | 38.36073 | -91.28338 | 23189 ft | 302 kts | 246° |
| 2026-05-07 19:06 | 38.33880 | -91.32903 | 23768 ft | 304 kts | 246° |
| 2026-05-07 19:06 | 38.32767 | -91.35191 | 24017 ft | 305 kts | 246° |
| 2026-05-07 19:07 | 38.31650 | -91.37491 | 24278 ft | 305 kts | 246° |
| 2026-05-07 19:07 | 38.30543 | -91.39791 | 24537 ft | 305 kts | 246° |
| 2026-05-07 19:07 | 38.29425 | -91.42099 | 24760 ft | 307 kts | 246° |
| 2026-05-07 19:07 | 38.28319 | -91.44373 | 25068 ft | 305 kts | 246° |
| 2026-05-07 19:08 | 38.27206 | -91.46662 | 25374 ft | 303 kts | 246° |
| 2026-05-07 19:08 | 38.26106 | -91.48940 | 25687 ft | 302 kts | 246° |
| 2026-05-07 19:08 | 38.25006 | -91.51208 | 25990 ft | 300 kts | 246° |
| 2026-05-07 19:08 | 38.23915 | -91.53458 | 26278 ft | 299 kts | 246° |
| 2026-05-07 19:09 | 38.22830 | -91.55711 | 26524 ft | 299 kts | 246° |
| 2026-05-07 19:09 | 38.21737 | -91.57958 | 26804 ft | 298 kts | 246° |
| 2026-05-07 19:09 | 38.20649 | -91.60190 | 27085 ft | 296 kts | 246° |
| 2026-05-07 19:09 | 38.19570 | -91.62417 | 27383 ft | 295 kts | 246° |
| 2026-05-07 19:10 | 38.18495 | -91.64629 | 27670 ft | 294 kts | 246° |
| 2026-05-07 19:10 | 38.17423 | -91.66835 | 27905 ft | 292 kts | 246° |
| 2026-05-07 19:10 | 38.16367 | -91.69021 | 28219 ft | 290 kts | 246° |
| 2026-05-07 19:10 | 38.15320 | -91.71198 | 28505 ft | 288 kts | 246° |
| 2026-05-07 19:11 | 38.14281 | -91.73359 | 28774 ft | 286 kts | 246° |
| 2026-05-07 19:11 | 38.13247 | -91.75512 | 29027 ft | 285 kts | 246° |
| 2026-05-07 19:11 | 38.12236 | -91.77630 | 29261 ft | 283 kts | 246° |
| 2026-05-07 19:11 | 38.11206 | -91.79794 | 29517 ft | 282 kts | 246° |
| 2026-05-07 19:12 | 38.10191 | -91.81922 | 29772 ft | 281 kts | 246° |
| 2026-05-07 19:12 | 38.09182 | -91.84033 | 29977 ft | 277 kts | 246° |
| 2026-05-07 19:12 | 38.08197 | -91.86109 | 30053 ft | 279 kts | 246° |
| 2026-05-07 19:12 | 38.07211 | -91.88193 | 30080 ft | 283 kts | 246° |
| 2026-05-07 19:13 | 38.06190 | -91.90353 | 30081 ft | 288 kts | 246° |
| 2026-05-07 19:13 | 38.05147 | -91.92546 | 30082 ft | 293 kts | 246° |
| 2026-05-07 19:13 | 38.04071 | -91.94771 | 30091 ft | 298 kts | 245° |
| 2026-05-07 19:13 | 38.02971 | -91.97033 | 30093 ft | 304 kts | 245° |
| 2026-05-07 19:14 | 38.00724 | -92.01662 | 30091 ft | 313 kts | 245° |
| 2026-05-07 19:14 | 37.98405 | -92.06433 | 30092 ft | 322 kts | 245° |
| 2026-05-07 19:15 | 37.96005 | -92.11327 | 30076 ft | 331 kts | 244° |
| 2026-05-07 19:15 | 37.93558 | -92.16333 | 30065 ft | 337 kts | 245° |
| 2026-05-07 19:16 | 37.91087 | -92.21354 | 30050 ft | 334 kts | 244° |
| 2026-05-07 19:16 | 37.88648 | -92.26364 | 30059 ft | 334 kts | 245° |
| 2026-05-07 19:17 | 37.86196 | -92.31380 | 30050 ft | 336 kts | 244° |
| 2026-05-07 19:17 | 37.83728 | -92.36445 | 30056 ft | 339 kts | 244° |
| 2026-05-07 19:18 | 37.81253 | -92.41530 | 30057 ft | 339 kts | 244° |
| 2026-05-07 19:18 | 37.78783 | -92.46605 | 30078 ft | 340 kts | 244° |
| 2026-05-07 19:19 | 37.76297 | -92.51697 | 30095 ft | 341 kts | 244° |
| 2026-05-07 19:19 | 37.73812 | -92.56753 | 30090 ft | 341 kts | 244° |
| 2026-05-07 19:20 | 37.71306 | -92.61838 | 30091 ft | 341 kts | 244° |
| 2026-05-07 19:20 | 37.68799 | -92.66927 | 30091 ft | 342 kts | 244° |
| 2026-05-07 19:21 | 37.66275 | -92.72005 | 30085 ft | 342 kts | 244° |
| 2026-05-07 19:21 | 37.63746 | -92.77111 | 30091 ft | 343 kts | 244° |
| 2026-05-07 19:22 | 37.61229 | -92.82196 | 30081 ft | 343 kts | 244° |
| 2026-05-07 19:22 | 37.58716 | -92.87252 | 30082 ft | 343 kts | 244° |
| 2026-05-07 19:23 | 37.56177 | -92.92351 | 30081 ft | 343 kts | 244° |
| 2026-05-07 19:23 | 37.53646 | -92.97437 | 30085 ft | 343 kts | 244° |
| 2026-05-07 19:24 | 37.51144 | -93.02472 | 30082 ft | 343 kts | 244° |
| 2026-05-07 19:24 | 37.48627 | -93.07533 | 30080 ft | 344 kts | 244° |
| 2026-05-07 19:25 | 37.46092 | -93.12657 | 30086 ft | 346 kts | 244° |
| 2026-05-07 19:25 | 37.43548 | -93.17797 | 30088 ft | 346 kts | 244° |
| 2026-05-07 19:26 | 37.40982 | -93.22907 | 30079 ft | 344 kts | 244° |
| 2026-05-07 19:26 | 37.38424 | -93.28002 | 30085 ft | 345 kts | 244° |
| 2026-05-07 19:27 | 37.35877 | -93.33104 | 30084 ft | 344 kts | 246° |
| 2026-05-07 19:27 | 37.33977 | -93.38547 | 30084 ft | 339 kts | 253° |
| 2026-05-07 19:28 | 37.32339 | -93.44038 | 30088 ft | 339 kts | 253° |
| 2026-05-07 19:28 | 37.30672 | -93.49621 | 30087 ft | 339 kts | 253° |
| 2026-05-07 19:29 | 37.28972 | -93.55149 | 30088 ft | 339 kts | 253° |
| 2026-05-07 19:29 | 37.27262 | -93.60664 | 30090 ft | 339 kts | 252° |
| 2026-05-07 19:30 | 37.25558 | -93.66145 | 30091 ft | 339 kts | 253° |
| 2026-05-07 19:30 | 37.23848 | -93.71642 | 30092 ft | 339 kts | 253° |
| 2026-05-07 19:31 | 37.22135 | -93.77149 | 30095 ft | 339 kts | 253° |
| 2026-05-07 19:31 | 37.20410 | -93.82657 | 30080 ft | 339 kts | 252° |
| 2026-05-07 19:32 | 37.18678 | -93.88189 | 30088 ft | 342 kts | 253° |
| 2026-05-07 19:32 | 37.16951 | -93.93708 | 30072 ft | 342 kts | 252° |
| 2026-05-07 19:33 | 37.15233 | -93.99268 | 30089 ft | 340 kts | 252° |
| 2026-05-07 19:33 | 37.13497 | -94.04780 | 30090 ft | 341 kts | 252° |
| 2026-05-07 19:34 | 37.11758 | -94.10302 | 30094 ft | 340 kts | 252° |
| 2026-05-07 19:34 | 37.10015 | -94.15806 | 30097 ft | 340 kts | 252° |
| 2026-05-07 19:35 | 37.08273 | -94.21314 | 30080 ft | 341 kts | 252° |
| 2026-05-07 19:35 | 37.06512 | -94.26848 | 29962 ft | 346 kts | 252° |
| 2026-05-07 19:36 | 37.05615 | -94.29666 | 29546 ft | 349 kts | 252° |
| 2026-05-07 19:36 | 37.04732 | -94.32445 | 29144 ft | 348 kts | 252° |
| 2026-05-07 19:36 | 37.03845 | -94.35241 | 28740 ft | 351 kts | 252° |
| 2026-05-07 19:36 | 37.02942 | -94.38085 | 28358 ft | 353 kts | 252° |
| 2026-05-07 19:37 | 37.02037 | -94.40946 | 27975 ft | 355 kts | 252° |
| 2026-05-07 19:37 | 37.01127 | -94.43825 | 27603 ft | 357 kts | 252° |
| 2026-05-07 19:37 | 37.00213 | -94.46714 | 27158 ft | 359 kts | 252° |
| 2026-05-07 19:37 | 36.99291 | -94.49628 | 26662 ft | 361 kts | 252° |
| 2026-05-07 19:38 | 36.98344 | -94.52551 | 26174 ft | 363 kts | 251° |
| 2026-05-07 19:38 | 36.97393 | -94.55486 | 25695 ft | 366 kts | 252° |
| 2026-05-07 19:38 | 36.96436 | -94.58444 | 25216 ft | 368 kts | 251° |
| 2026-05-07 19:38 | 36.95470 | -94.61402 | 24754 ft | 367 kts | 251° |
| 2026-05-07 19:39 | 36.94522 | -94.64352 | 24294 ft | 365 kts | 252° |
| 2026-05-07 19:39 | 36.93585 | -94.67270 | 23846 ft | 364 kts | 251° |
| 2026-05-07 19:39 | 36.92633 | -94.70195 | 23345 ft | 362 kts | 251° |
| 2026-05-07 19:39 | 36.92012 | -94.72129 | 22995 ft | 361 kts | 252° |
| 2026-05-07 19:40 | 36.90766 | -94.75998 | 22292 ft | 358 kts | 251° |
| 2026-05-07 19:40 | 36.89848 | -94.78878 | 21777 ft | 355 kts | 252° |
| 2026-05-07 19:40 | 36.88929 | -94.81732 | 21243 ft | 354 kts | 251° |
| 2026-05-07 19:40 | 36.88010 | -94.84548 | 20750 ft | 352 kts | 251° |
| 2026-05-07 19:41 | 36.87092 | -94.87376 | 20261 ft | 349 kts | 252° |
| 2026-05-07 19:41 | 36.86198 | -94.90180 | 19786 ft | 348 kts | 252° |
| 2026-05-07 19:41 | 36.85591 | -94.92038 | 19469 ft | 347 kts | 251° |
| 2026-05-07 19:41 | 36.84688 | -94.94822 | 19002 ft | 345 kts | 252° |
| 2026-05-07 19:42 | 36.83793 | -94.97589 | 18529 ft | 344 kts | 251° |
| 2026-05-07 19:42 | 36.82887 | -95.00345 | 18025 ft | 342 kts | 252° |
| 2026-05-07 19:42 | 36.81451 | -95.03842 | 17336 ft | 347 kts | 238° |
| 2026-05-07 19:42 | 36.79893 | -95.06147 | 16835 ft | 350 kts | 233° |
| 2026-05-07 19:43 | 36.78768 | -95.07642 | 16494 ft | 349 kts | 231° |
| 2026-05-07 19:43 | 36.77054 | -95.09794 | 15999 ft | 349 kts | 230° |
| 2026-05-07 19:43 | 36.75301 | -95.11894 | 15512 ft | 349 kts | 229° |
| 2026-05-07 19:43 | 36.73539 | -95.13971 | 15031 ft | 348 kts | 229° |
| 2026-05-07 19:44 | 36.71803 | -95.16020 | 14559 ft | 346 kts | 229° |
| 2026-05-07 19:44 | 36.70070 | -95.18102 | 14096 ft | 346 kts | 229° |
| 2026-05-07 19:44 | 36.68357 | -95.20175 | 13604 ft | 345 kts | 229° |
| 2026-05-07 19:44 | 36.66652 | -95.22255 | 13080 ft | 342 kts | 229° |
| 2026-05-07 19:45 | 36.64940 | -95.24306 | 12569 ft | 340 kts | 229° |
| 2026-05-07 19:45 | 36.63244 | -95.26336 | 12074 ft | 337 kts | 229° |
| 2026-05-07 19:45 | 36.61588 | -95.28347 | 11570 ft | 335 kts | 229° |
| 2026-05-07 19:45 | 36.59949 | -95.30311 | 11088 ft | 327 kts | 229° |
| 2026-05-07 19:46 | 36.58338 | -95.32240 | 10596 ft | 320 kts | 229° |
| 2026-05-07 19:46 | 36.56759 | -95.34141 | 10210 ft | 310 kts | 229° |
| 2026-05-07 19:46 | 36.55248 | -95.35969 | 10054 ft | 295 kts | 229° |
| 2026-05-07 19:46 | 36.53817 | -95.37711 | 10004 ft | 281 kts | 229° |
| 2026-05-07 19:47 | 36.52424 | -95.39416 | 9991 ft | 282 kts | 229° |
| 2026-05-07 19:47 | 36.51014 | -95.41114 | 9986 ft | 282 kts | 229° |
| 2026-05-07 19:47 | 36.49605 | -95.42805 | 9997 ft | 283 kts | 229° |
| 2026-05-07 19:47 | 36.48185 | -95.44504 | 9983 ft | 282 kts | 229° |
| 2026-05-07 19:48 | 36.46777 | -95.46194 | 9992 ft | 282 kts | 229° |
| 2026-05-07 19:48 | 36.45500 | -95.48007 | 9998 ft | 276 kts | 243° |
| 2026-05-07 19:48 | 36.44568 | -95.50073 | 10000 ft | 275 kts | 245° |
| 2026-05-07 19:48 | 36.43659 | -95.52165 | 10003 ft | 276 kts | 246° |
| 2026-05-07 19:49 | 36.42766 | -95.54264 | 10004 ft | 276 kts | 246° |
| 2026-05-07 19:49 | 36.41893 | -95.56360 | 10001 ft | 276 kts | 246° |
| 2026-05-07 19:49 | 36.41013 | -95.58477 | 9971 ft | 274 kts | 247° |
| 2026-05-07 19:49 | 36.40362 | -95.60672 | 9414 ft | 270 kts | 266° |
| 2026-05-07 19:50 | 36.40284 | -95.62961 | 8979 ft | 267 kts | 270° |
| 2026-05-07 19:50 | 36.40245 | -95.65259 | 8534 ft | 266 kts | 270° |
| 2026-05-07 19:50 | 36.40232 | -95.67553 | 8094 ft | 265 kts | 271° |
| 2026-05-07 19:50 | 36.40243 | -95.69838 | 7674 ft | 264 kts | 271° |
| 2026-05-07 19:51 | 36.40277 | -95.72109 | 7262 ft | 262 kts | 272° |
| 2026-05-07 19:51 | 36.40291 | -95.74350 | 6940 ft | 258 kts | 272° |
| 2026-05-07 19:51 | 36.40300 | -95.76575 | 6540 ft | 257 kts | 272° |
| 2026-05-07 19:51 | 36.40315 | -95.78794 | 6142 ft | 257 kts | 272° |
| 2026-05-07 19:52 | 36.40352 | -95.80971 | 5243 ft | 253 kts | 271° |
| 2026-05-07 19:52 | 36.40419 | -95.83152 | 4256 ft | 253 kts | 271° |
| 2026-05-07 19:52 | 36.40459 | -95.85318 | 3249 ft | 256 kts | 261° |
| 2026-05-07 19:52 | 36.39698 | -95.87273 | 2974 ft | 252 kts | 225° |
| 2026-05-07 19:53 | 36.38260 | -95.88478 | 2721 ft | 253 kts | 206° |
| 2026-05-07 19:53 | 36.36569 | -95.88931 | 2605 ft | 247 kts | 180° |
| 2026-05-07 19:53 | 36.34892 | -95.88922 | 2525 ft | 234 kts | 186° |
| 2026-05-07 19:53 | 36.33315 | -95.89082 | 2470 ft | 221 kts | 185° |
| 2026-05-07 19:54 | 36.31817 | -95.89151 | 2466 ft | 210 kts | 185° |
| 2026-05-07 19:54 | 36.30395 | -95.89234 | 2472 ft | 200 kts | 186° |
| 2026-05-07 19:54 | 36.28998 | -95.89345 | 2230 ft | 203 kts | 186° |
| 2026-05-07 19:54 | 36.27612 | -95.89444 | 2049 ft | 195 kts | 186° |
| 2026-05-07 19:55 | 36.26332 | -95.89536 | 1821 ft | 178 kts | 186° |
| 2026-05-07 19:55 | 36.25137 | -95.89615 | 1534 ft | 162 kts | 186° |
| 2026-05-07 19:55 | 36.24086 | -95.89681 | 1305 ft | 144 kts | 185° |
| 2026-05-07 19:55 | 36.23140 | -95.89745 | 1158 ft | 126 kts | 186° |
| 2026-05-07 19:56 | 36.22298 | -95.89793 | 1002 ft | 121 kts | 187° |
| 2026-05-07 19:56 | 36.21474 | -95.89849 | 868 ft | 117 kts | 187° |
| 2026-05-07 19:56 | 36.20674 | -95.89915 | 685 ft | 111 kts | 185° |
| 2026-05-07 19:56 | 36.19979 | -95.89961 | 667 ft | 87 kts | 184° |
| 2026-05-07 19:57 | 36.19480 | -95.89995 | 668 ft | 58 kts | 182° |
| 2026-05-07 19:57 | 36.19199 | -95.90013 | 666 ft | 26 kts | 183° |
| 2026-05-07 19:57 | 36.19070 | -95.89987 | 667 ft | 17 kts | 113° |
| 2026-05-07 19:57 | 36.19056 | -95.89854 | 667 ft | 15 kts | 93° |
| 2026-05-07 19:58 | 36.19093 | -95.89748 | 667 ft | 14 kts | 46° |
| 2026-05-07 19:58 | 36.19092 | -95.89708 | 667 ft | 0 kts | 188° |